CA-0563 weather

Hay Island Airstrip
Hay Island, Ontario, Canada

Public forecast

Using degrees Celsius for public forecast. Weather courtesy of forecast.io.

METAR (pilot weather report)

Closest report is Wiarton Airport, 10.3 nm (19.0 km) SSW. Retrieved 2019/07/18 18:00 UTC (26 minutes ago):

CYVV 181800Z 23009KT 15SM SCT050 BKN250 29/19 A2989 RMK SC4CI3 WND ESTD SLP122 DENSITY ALT 2500FT

TAF (pilot weather forecast)

Closest forecast is Wiarton Airport, 10.3 nm (19.0 km) SSW. Retrieved 2019/07/18 14:00 UTC (4 hours ago):

TAF CYVV 181338Z 1814/1823 18005KT P6SM BKN080 BECMG 1815/1817 24006KT FM181700 26006KT P6SM FEW050 FM182100 22012KT P6SM BKN160 RMK NXT FCST BY 182000Z